createdAt,value
2023-05-23T00:01:59.895Z,48.30
2023-05-23T00:04:27.555Z,30.95
2023-05-23T00:06:55.978Z,36.53
2023-05-23T00:09:23.654Z,30.30
2023-05-23T00:11:51.161Z,25.42
2023-05-23T00:14:18.897Z,35.22
2023-05-23T00:16:48.865Z,29.80
2023-05-23T00:19:16.821Z,26.10
2023-05-23T00:21:51.776Z,30.92
2023-05-23T00:24:19.944Z,34.42
2023-05-23T00:26:47.484Z,67.57
2023-05-23T00:29:16.120Z,69.85
2023-05-23T00:31:45.852Z,69.70
2023-05-23T00:34:18.778Z,49.58
2023-05-23T00:36:49.760Z,53.97
2023-05-23T00:39:21.379Z,91.05
2023-05-23T00:41:52.268Z,99.25
2023-05-23T00:44:20.977Z,56.30
2023-05-23T00:46:54.480Z,45.20
2023-05-23T00:49:23.122Z,49.92
2023-05-23T00:51:52.210Z,57.45
2023-05-23T00:54:32.964Z,61.47
2023-05-23T00:57:00.615Z,67.93
2023-05-23T00:59:28.823Z,72.32
2023-05-23T01:01:57.739Z,116.88
2023-05-23T01:04:25.916Z,56.80
2023-05-23T01:06:57.088Z,288.67
2023-05-23T01:12:22.741Z,89.20
2023-05-23T01:14:56.178Z,91.85
2023-05-23T01:18:07.680Z,31.55
2023-05-23T01:20:44.687Z,58.58
2023-05-23T01:23:26.826Z,57.70
2023-05-23T01:26:49.771Z,72.35
2023-05-23T01:29:26.100Z,73.60
2023-05-23T01:31:56.819Z,73.85
2023-05-23T01:34:24.335Z,73.07
2023-05-23T01:36:55.364Z,97.10
2023-05-23T01:39:23.813Z,84.50
2023-05-23T01:41:53.598Z,80.67
2023-05-23T01:44:21.716Z,96.72
2023-05-23T01:46:49.189Z,91.75
2023-05-23T01:49:19.905Z,97.70
2023-05-23T01:51:48.095Z,72.70
2023-05-23T01:54:16.571Z,65.30
2023-05-23T01:56:44.429Z,58.85
2023-05-23T01:59:12.857Z,58.08
2023-05-23T02:01:41.292Z,48.58
2023-05-23T02:04:09.086Z,49.67
2023-05-23T02:06:36.569Z,54.70
2023-05-23T02:09:04.104Z,52.83
2023-05-23T02:11:33.174Z,45.35
2023-05-23T02:14:02.936Z,44.60
2023-05-23T02:16:30.457Z,26.75
2023-05-23T02:18:57.915Z,31.00
2023-05-23T02:21:25.557Z,31.17
2023-05-23T02:23:53.191Z,26.95
2023-05-23T02:26:21.017Z,35.28
2023-05-23T02:28:48.693Z,36.78
2023-05-23T02:31:16.784Z,31.85
2023-05-23T02:33:44.401Z,32.83
2023-05-23T02:36:11.985Z,39.40
2023-05-23T02:38:39.584Z,28.90
2023-05-23T02:41:07.132Z,37.28
2023-05-23T02:43:34.938Z,49.20
2023-05-23T02:46:02.929Z,63.85
2023-05-23T02:48:30.571Z,75.22
2023-05-23T02:50:58.362Z,61.92
2023-05-23T02:53:26.507Z,117.10
2023-05-23T02:55:55.140Z,58.75
2023-05-23T02:58:23.481Z,60.67
2023-05-23T03:00:51.197Z,91.50
2023-05-23T03:03:18.915Z,54.40
2023-05-23T03:05:46.566Z,42.70
2023-05-23T03:08:14.179Z,49.63
2023-05-23T03:10:42.292Z,50.55
2023-05-23T03:13:11.675Z,39.20
2023-05-23T03:15:40.572Z,44.63
2023-05-23T03:18:08.819Z,44.38
2023-05-23T03:20:36.344Z,37.67
2023-05-23T03:23:04.948Z,34.13
2023-05-23T03:25:32.486Z,38.28
2023-05-23T03:28:00.196Z,55.28
2023-05-23T03:30:27.984Z,50.78
2023-05-23T03:32:55.716Z,42.55
2023-05-23T03:35:23.447Z,47.80
2023-05-23T03:37:51.122Z,32.63
2023-05-23T03:40:18.846Z,26.25
2023-05-23T03:42:49.065Z,34.50
2023-05-23T03:45:17.633Z,37.72
2023-05-23T03:47:45.243Z,27.75
2023-05-23T03:50:12.920Z,26.45
2023-05-23T03:52:40.519Z,24.00
2023-05-23T03:55:10.828Z,25.88
2023-05-23T03:57:38.518Z,22.83
2023-05-23T04:00:11.408Z,30.80
2023-05-23T04:02:47.923Z,30.60
2023-05-23T04:05:18.721Z,36.20
2023-05-23T04:07:47.020Z,45.38
2023-05-23T04:10:15.902Z,56.35
2023-05-23T04:12:43.905Z,45.65
2023-05-23T04:15:15.454Z,53.58
2023-05-23T04:17:54.084Z,54.15
2023-05-23T04:20:22.254Z,50.63
2023-05-23T04:22:50.063Z,41.08
2023-05-23T04:25:19.843Z,60.05
2023-05-23T04:27:57.334Z,46.60
2023-05-23T04:30:25.196Z,59.83
2023-05-23T04:32:53.628Z,49.58
2023-05-23T04:35:22.512Z,51.17
2023-05-23T04:37:50.122Z,68.20
2023-05-23T04:40:17.648Z,58.40
2023-05-23T04:42:58.618Z,54.22
2023-05-23T04:45:44.880Z,48.00
2023-05-23T04:48:34.266Z,43.65
2023-05-23T04:51:05.662Z,49.72
2023-05-23T04:53:34.672Z,38.10
2023-05-23T04:56:02.470Z,39.30
2023-05-23T05:01:03.089Z,39.35
2023-05-23T05:03:31.928Z,39.15
2023-05-23T05:06:01.271Z,33.90
2023-05-23T05:08:28.874Z,32.60
2023-05-23T05:10:57.490Z,25.98
2023-05-23T05:13:25.817Z,20.33
2023-05-23T05:15:55.712Z,13.95
2023-05-23T05:18:27.163Z,22.83
2023-05-23T05:20:56.736Z,23.90
2023-05-23T05:23:28.312Z,27.93
2023-05-23T05:25:56.800Z,23.52
2023-05-23T05:28:24.505Z,14.00
2023-05-23T05:33:27.785Z,22.35
2023-05-23T05:36:06.758Z,13.48
2023-05-23T05:38:34.566Z,12.35
2023-05-23T05:41:02.422Z,10.25
2023-05-23T05:43:35.259Z,9.88
2023-05-23T05:46:03.177Z,12.73
2023-05-23T05:51:03.551Z,11.82
2023-05-23T05:53:52.173Z,11.23
2023-05-23T05:56:22.111Z,10.95
2023-05-23T05:58:49.536Z,9.13
2023-05-23T06:03:45.265Z,10.73
2023-05-23T06:08:42.112Z,4.15
2023-05-23T06:11:13.140Z,8.30
2023-05-23T06:13:40.619Z,6.53
2023-05-23T06:16:08.392Z,4.47
2023-05-23T06:18:36.072Z,6.45
2023-05-23T06:21:03.662Z,5.88
2023-05-23T06:23:31.680Z,3.63
2023-05-23T06:25:59.145Z,8.70
2023-05-23T06:28:26.860Z,8.80
2023-05-23T06:30:54.360Z,6.93
2023-05-23T06:33:22.063Z,9.70
2023-05-23T06:38:17.958Z,8.40
2023-05-23T06:40:45.766Z,10.98
2023-05-23T06:43:14.794Z,7.38
2023-05-23T06:45:47.285Z,9.55
2023-05-23T06:48:15.178Z,9.73
2023-05-23T06:50:43.215Z,8.68
2023-05-23T06:53:12.446Z,10.68
2023-05-23T06:55:41.642Z,6.68
2023-05-23T06:58:12.540Z,8.90
2023-05-23T07:00:40.970Z,6.13
2023-05-23T07:03:20.968Z,15.18
2023-05-23T07:05:49.396Z,11.00
2023-05-23T07:08:18.595Z,8.30
2023-05-23T07:11:15.047Z,8.75
2023-05-23T07:13:50.337Z,5.75
2023-05-23T07:16:24.471Z,8.77
2023-05-23T07:19:01.299Z,10.15
2023-05-23T07:21:29.381Z,11.80
2023-05-23T07:23:57.725Z,8.13
2023-05-23T07:26:26.785Z,10.97
2023-05-23T07:28:56.457Z,12.80
2023-05-23T07:31:24.043Z,10.90
2023-05-23T07:33:56.063Z,8.40
2023-05-23T07:36:34.037Z,4.25
2023-05-23T07:39:02.562Z,6.38
2023-05-23T07:41:30.434Z,14.60
2023-05-23T07:43:57.868Z,8.68
2023-05-23T07:46:25.539Z,15.88
2023-05-23T07:48:53.200Z,9.05
2023-05-23T07:51:21.417Z,12.38
2023-05-23T07:53:51.457Z,9.32
2023-05-23T07:56:22.552Z,21.98
2023-05-23T07:58:51.246Z,7.03
2023-05-23T08:01:19.661Z,11.00
2023-05-23T08:04:03.689Z,9.98
2023-05-23T08:09:52.351Z,9.95
2023-05-23T08:12:21.338Z,4.97
2023-05-23T08:14:52.848Z,8.70
2023-05-23T08:17:25.437Z,10.95
2023-05-23T08:19:53.850Z,11.27
2023-05-23T08:22:21.344Z,6.97
2023-05-23T08:24:48.854Z,15.05
2023-05-23T08:27:16.462Z,7.18
2023-05-23T08:29:45.975Z,7.90
2023-05-23T08:32:13.800Z,8.82
2023-05-23T08:34:41.648Z,11.60
2023-05-23T08:37:09.288Z,8.18
2023-05-23T08:39:36.856Z,9.93
2023-05-23T08:42:23.729Z,5.75
2023-05-23T08:44:51.747Z,14.68
2023-05-23T08:47:19.766Z,6.32
2023-05-23T08:50:01.361Z,5.75
2023-05-23T08:52:31.945Z,12.93
2023-05-23T08:55:02.147Z,6.90
2023-05-23T08:57:31.489Z,6.97
2023-05-23T09:00:13.987Z,2.75
2023-05-23T09:02:47.027Z,12.20
2023-05-23T09:05:31.203Z,6.18
2023-05-23T09:07:58.890Z,3.80
2023-05-23T09:10:29.341Z,3.15
2023-05-23T09:12:57.811Z,7.03
2023-05-23T09:15:26.718Z,2.97
2023-05-23T09:18:01.343Z,5.78
2023-05-23T09:20:29.491Z,5.80
2023-05-23T09:23:03.593Z,8.00
2023-05-23T09:25:31.873Z,9.95
2023-05-23T09:28:00.853Z,8.63
2023-05-23T09:30:34.249Z,5.00
2023-05-23T09:33:05.169Z,5.68
2023-05-23T09:35:34.391Z,12.35
2023-05-23T09:38:01.839Z,6.35
2023-05-23T09:40:32.493Z,5.95
2023-05-23T09:43:04.266Z,7.32
2023-05-23T09:45:33.084Z,10.35
2023-05-23T09:48:02.202Z,7.15
2023-05-23T09:50:33.280Z,9.75
2023-05-23T09:53:01.399Z,8.23
2023-05-23T09:55:28.927Z,4.22
2023-05-23T09:57:59.429Z,5.25
2023-05-23T10:00:27.909Z,10.60
2023-05-23T10:02:58.237Z,8.85
2023-05-23T10:05:48.192Z,5.10
2023-05-23T10:08:35.887Z,7.50
2023-05-23T10:11:35.499Z,6.88
2023-05-23T10:14:07.131Z,5.53
2023-05-23T10:16:39.405Z,6.28
2023-05-23T10:19:23.131Z,13.68
2023-05-23T10:22:00.522Z,9.57
2023-05-23T10:24:28.550Z,4.22
2023-05-23T10:26:57.690Z,6.10
2023-05-23T10:29:26.074Z,13.57
2023-05-23T10:31:54.540Z,7.63
2023-05-23T10:34:36.714Z,6.38
2023-05-23T10:37:06.638Z,5.03
2023-05-23T10:39:58.922Z,5.88
2023-05-23T10:43:06.625Z,5.13
2023-05-23T10:45:43.682Z,7.10
2023-05-23T10:48:34.996Z,6.82
2023-05-23T10:51:14.155Z,9.07
2023-05-23T10:53:46.133Z,7.97
2023-05-23T10:56:24.614Z,5.63
2023-05-23T10:58:54.305Z,11.10
2023-05-23T11:01:23.086Z,9.40
2023-05-23T11:03:55.602Z,11.43
2023-05-23T11:06:44.089Z,6.20
2023-05-23T11:09:18.598Z,8.93
2023-05-23T11:12:04.195Z,10.88
2023-05-23T11:14:54.570Z,15.10
2023-05-23T11:17:33.477Z,5.90
2023-05-23T11:20:06.543Z,8.07
2023-05-23T11:22:35.558Z,6.78
2023-05-23T11:25:10.532Z,7.93
2023-05-23T11:27:41.011Z,10.60
2023-05-23T11:30:14.668Z,5.60
2023-05-23T11:32:51.865Z,5.05
2023-05-23T11:35:20.672Z,7.00
2023-05-23T11:37:48.451Z,7.20
2023-05-23T11:40:39.283Z,4.55
2023-05-23T11:43:11.663Z,4.00
2023-05-23T11:45:40.026Z,9.98
2023-05-23T11:48:13.059Z,5.55
2023-05-23T11:50:49.224Z,5.85
2023-05-23T11:53:20.418Z,10.43
2023-05-23T11:55:54.347Z,21.98
2023-05-23T11:58:25.702Z,8.43
2023-05-23T12:01:02.729Z,4.53
2023-05-23T12:03:31.164Z,6.15
2023-05-23T12:05:59.445Z,9.30
2023-05-23T12:08:27.152Z,29.20
2023-05-23T12:10:59.633Z,16.25
2023-05-23T12:13:30.483Z,14.32
2023-05-23T12:16:02.588Z,6.88
2023-05-23T12:18:32.232Z,8.73
2023-05-23T12:21:05.221Z,7.47
2023-05-23T12:23:35.036Z,7.72
2023-05-23T12:26:07.072Z,11.85
2023-05-23T12:28:41.757Z,4.82
2023-05-23T12:31:17.808Z,9.30
2023-05-23T12:33:47.363Z,8.10
2023-05-23T12:36:21.857Z,18.60
2023-05-23T12:38:49.417Z,10.68
2023-05-23T12:41:19.820Z,10.98
2023-05-23T12:43:56.130Z,11.13
2023-05-23T12:46:26.179Z,10.70
2023-05-23T12:48:54.456Z,10.15
2023-05-23T12:51:22.021Z,10.20
2023-05-23T12:53:50.182Z,7.95
2023-05-23T12:56:17.580Z,6.10
2023-05-23T12:58:44.981Z,8.07
2023-05-23T13:01:12.575Z,8.35
2023-05-23T13:03:40.251Z,11.32
2023-05-23T13:06:08.006Z,7.55
2023-05-23T13:08:35.782Z,8.48
2023-05-23T13:11:03.535Z,9.50
2023-05-23T13:13:33.070Z,5.17
2023-05-23T13:16:01.142Z,9.23
2023-05-23T13:18:28.629Z,13.43
2023-05-23T13:20:56.289Z,4.38
2023-05-23T13:23:25.222Z,5.00
2023-05-23T13:25:52.893Z,10.15
2023-05-23T13:28:20.428Z,11.50
2023-05-23T13:30:48.174Z,10.40
2023-05-23T13:33:16.014Z,13.20
2023-05-23T13:35:43.703Z,5.45
2023-05-23T13:38:12.119Z,9.77
2023-05-23T13:40:39.875Z,6.78
2023-05-23T13:43:07.423Z,5.37
2023-05-23T13:45:35.130Z,8.68
2023-05-23T13:48:02.872Z,9.45
2023-05-23T13:50:30.825Z,6.80
2023-05-23T13:52:58.529Z,5.85
2023-05-23T13:55:26.954Z,4.70
2023-05-23T13:57:54.498Z,6.72
2023-05-23T14:00:22.201Z,7.88
2023-05-23T14:02:49.885Z,9.80
2023-05-23T14:05:18.827Z,9.30
2023-05-23T14:07:46.770Z,4.38
2023-05-23T14:10:16.642Z,7.47
2023-05-23T14:12:44.189Z,13.23
2023-05-23T14:15:11.953Z,10.15
2023-05-23T14:17:39.775Z,7.80
2023-05-23T14:20:08.487Z,4.37
2023-05-23T14:22:36.124Z,9.07
2023-05-23T14:25:03.936Z,6.90
2023-05-23T14:27:33.150Z,13.10
2023-05-23T14:30:00.586Z,18.30
2023-05-23T14:32:28.361Z,5.50
2023-05-23T14:34:55.906Z,11.88
2023-05-23T14:37:23.601Z,9.38
2023-05-23T14:39:51.187Z,9.70
2023-05-23T14:42:18.768Z,7.85
2023-05-23T14:44:46.278Z,4.13
2023-05-23T14:47:13.900Z,10.52
2023-05-23T14:49:41.515Z,5.82
2023-05-23T14:52:09.063Z,7.18
2023-05-23T14:54:36.860Z,15.35
2023-05-23T14:57:04.962Z,7.07
2023-05-23T14:59:32.548Z,10.93
2023-05-23T15:02:00.058Z,5.13
2023-05-23T15:04:27.880Z,12.70
2023-05-23T15:06:55.511Z,8.33
2023-05-23T15:09:23.619Z,19.42
2023-05-23T15:11:51.433Z,10.40
2023-05-23T15:14:19.251Z,10.25
2023-05-23T15:16:48.213Z,11.37
2023-05-23T15:19:16.733Z,10.27
2023-05-23T15:21:50.614Z,16.10
2023-05-23T15:24:19.428Z,14.95
2023-05-23T15:26:47.554Z,10.32
2023-05-23T15:29:17.472Z,4.35
2023-05-23T15:31:45.432Z,14.95
2023-05-23T15:34:13.026Z,32.33
2023-05-23T15:36:40.593Z,14.40
2023-05-23T15:39:08.506Z,10.65
2023-05-23T15:41:36.119Z,8.20
2023-05-23T15:44:04.207Z,14.23
2023-05-23T15:46:31.880Z,7.40
2023-05-23T15:49:03.135Z,7.50
2023-05-23T15:51:39.265Z,10.57
2023-05-23T15:54:07.520Z,10.52
2023-05-23T15:56:34.983Z,6.07
2023-05-23T15:59:03.373Z,11.23
2023-05-23T16:01:32.478Z,6.90
2023-05-23T16:04:00.489Z,13.43
2023-05-23T16:06:28.164Z,10.45
2023-05-23T16:08:55.934Z,6.88
2023-05-23T16:11:23.665Z,13.75
2023-05-23T16:13:51.210Z,16.00
2023-05-23T16:16:18.911Z,12.18
2023-05-23T16:18:46.424Z,18.40
2023-05-23T16:21:19.556Z,15.07
2023-05-23T16:23:48.511Z,23.35
2023-05-23T16:26:18.063Z,20.60
2023-05-23T16:28:45.755Z,11.38
2023-05-23T16:31:17.163Z,6.25
2023-05-23T16:33:45.322Z,27.08
2023-05-23T16:36:12.765Z,23.83
2023-05-23T16:38:40.426Z,16.90
2023-05-23T16:41:08.133Z,20.65
2023-05-23T16:43:35.798Z,16.27
2023-05-23T16:46:03.590Z,10.38
2023-05-23T16:48:31.290Z,16.70
2023-05-23T16:50:58.814Z,18.83
2023-05-23T16:53:26.570Z,20.35
2023-05-23T16:55:54.109Z,9.88
2023-05-23T16:58:21.579Z,9.18
2023-05-23T17:00:49.274Z,13.75
2023-05-23T17:03:16.966Z,10.63
2023-05-23T17:05:44.911Z,10.00
2023-05-23T17:08:12.629Z,7.72
2023-05-23T17:10:40.351Z,11.70
2023-05-23T17:13:07.980Z,13.65
2023-05-23T17:15:53.983Z,16.33
2023-05-23T17:18:21.482Z,32.10
2023-05-23T17:20:49.125Z,21.30
2023-05-23T17:23:18.500Z,13.85
2023-05-23T17:25:46.370Z,22.17
2023-05-23T17:28:14.022Z,26.70
2023-05-23T17:30:41.643Z,18.05
2023-05-23T17:33:10.737Z,17.52
2023-05-23T17:35:38.416Z,12.30
2023-05-23T17:38:06.195Z,6.22
2023-05-23T17:40:33.894Z,7.45
2023-05-23T17:43:01.373Z,11.75
2023-05-23T17:45:28.870Z,8.32
2023-05-23T17:47:58.011Z,12.27
2023-05-23T17:50:25.377Z,10.23
2023-05-23T17:52:52.996Z,11.77
2023-05-23T17:55:20.848Z,16.65
2023-05-23T17:57:48.281Z,10.43
2023-05-23T18:00:17.000Z,9.57
2023-05-23T18:02:44.534Z,7.65
2023-05-23T18:05:12.482Z,6.50
2023-05-23T18:07:39.948Z,11.45
2023-05-23T18:10:08.766Z,7.70
2023-05-23T18:12:36.397Z,16.27
2023-05-23T18:15:04.447Z,15.93
2023-05-23T18:17:31.964Z,8.67
2023-05-23T18:19:59.532Z,11.65
2023-05-23T18:22:27.174Z,11.57
2023-05-23T18:24:54.849Z,19.95
2023-05-23T18:27:22.298Z,22.77
2023-05-23T18:29:49.857Z,18.08
2023-05-23T18:32:17.707Z,11.68
2023-05-23T18:34:45.953Z,23.70
2023-05-23T18:37:13.627Z,24.88
2023-05-23T18:39:41.326Z,16.98
2023-05-23T18:42:09.057Z,19.88
2023-05-23T18:44:36.597Z,15.35
2023-05-23T18:47:04.435Z,21.33
2023-05-23T18:49:32.220Z,26.73
2023-05-23T18:52:02.721Z,19.02
2023-05-23T18:54:30.293Z,15.07
2023-05-23T18:56:57.660Z,12.40
2023-05-23T18:59:25.392Z,14.88
2023-05-23T19:01:52.938Z,25.02
2023-05-23T19:04:20.777Z,17.52
2023-05-23T19:06:48.867Z,16.58
2023-05-23T19:09:16.590Z,13.45
2023-05-23T19:11:44.133Z,14.60
2023-05-23T19:14:13.070Z,17.70
2023-05-23T19:16:40.948Z,19.38
2023-05-23T19:19:08.588Z,15.63
2023-05-23T19:21:36.400Z,18.80
2023-05-23T19:24:06.778Z,20.23
2023-05-23T19:26:34.654Z,14.65
2023-05-23T19:29:02.765Z,21.20
2023-05-23T19:31:31.066Z,22.10
2023-05-23T19:33:58.555Z,21.95
2023-05-23T19:36:26.302Z,19.42
2023-05-23T19:38:53.944Z,18.52
2023-05-23T19:41:21.907Z,15.75
2023-05-23T19:43:50.021Z,14.93
2023-05-23T19:46:17.675Z,20.38
2023-05-23T19:48:45.138Z,16.70
2023-05-23T19:51:13.657Z,33.53
2023-05-23T19:53:41.806Z,42.67
2023-05-23T19:56:09.369Z,40.23
2023-05-23T19:58:36.906Z,22.73
2023-05-23T20:01:04.447Z,22.33
2023-05-23T20:03:32.158Z,22.38
2023-05-23T20:06:00.047Z,23.73
2023-05-23T20:08:27.640Z,18.25
2023-05-23T20:10:58.910Z,25.52
2023-05-23T20:13:27.494Z,26.63
2023-05-23T20:15:55.309Z,17.80
2023-05-23T20:18:22.926Z,21.70
2023-05-23T20:20:50.589Z,32.00
2023-05-23T20:23:18.324Z,24.83
2023-05-23T20:25:45.902Z,27.80
2023-05-23T20:28:13.647Z,32.65
2023-05-23T20:30:41.454Z,30.38
2023-05-23T20:33:09.282Z,32.72
2023-05-23T20:35:37.413Z,19.65
2023-05-23T20:38:05.141Z,21.33
2023-05-23T20:40:33.979Z,20.17
2023-05-23T20:43:04.683Z,22.85
2023-05-23T20:45:33.178Z,22.35
2023-05-23T20:48:00.747Z,17.02
2023-05-23T20:50:28.504Z,23.02
2023-05-23T20:52:56.024Z,19.85
2023-05-23T20:55:23.864Z,21.35
2023-05-23T20:57:51.480Z,23.73
2023-05-23T21:00:20.966Z,14.07
2023-05-23T21:02:48.687Z,16.88
2023-05-23T21:05:16.401Z,12.40
2023-05-23T21:07:44.074Z,12.68
2023-05-23T21:10:11.458Z,13.52
2023-05-23T21:12:38.930Z,16.52
2023-05-23T21:15:09.181Z,14.25
2023-05-23T21:17:36.769Z,19.02
2023-05-23T21:20:06.201Z,13.65
2023-05-23T21:22:33.607Z,13.95
2023-05-23T21:25:01.333Z,9.63
2023-05-23T21:27:28.867Z,11.95
2023-05-23T21:29:56.844Z,8.85
2023-05-23T21:32:24.401Z,9.38
2023-05-23T21:34:51.994Z,8.23
2023-05-23T21:37:19.550Z,18.25
2023-05-23T21:39:51.917Z,15.75
2023-05-23T21:42:20.606Z,21.17
2023-05-23T21:44:48.265Z,9.98
2023-05-23T21:47:15.991Z,16.17
2023-05-23T21:49:43.657Z,12.55
2023-05-23T21:52:11.219Z,16.42
2023-05-23T21:54:38.804Z,7.60
2023-05-23T21:57:06.423Z,16.15
2023-05-23T21:59:34.034Z,7.90
2023-05-23T22:02:01.691Z,12.63
2023-05-23T22:04:29.435Z,9.63
2023-05-23T22:06:57.881Z,9.18
2023-05-23T22:09:25.989Z,16.83
2023-05-23T22:11:53.829Z,17.13
2023-05-23T22:14:21.436Z,9.60
2023-05-23T22:16:49.581Z,30.55
2023-05-23T22:19:19.362Z,20.42
2023-05-23T22:21:47.344Z,15.20
2023-05-23T22:24:14.882Z,15.68
2023-05-23T22:26:42.269Z,22.75
2023-05-23T22:29:09.928Z,16.25
2023-05-23T22:31:37.473Z,14.75
2023-05-23T22:34:04.968Z,10.98
2023-05-23T22:36:32.906Z,22.40
2023-05-23T22:39:04.774Z,19.92
2023-05-23T22:41:32.686Z,17.95
2023-05-23T22:44:00.440Z,10.00
2023-05-23T22:46:28.179Z,13.00
2023-05-23T22:48:55.698Z,14.65
2023-05-23T22:51:24.158Z,16.60
2023-05-23T22:53:52.346Z,25.35
2023-05-23T22:56:19.778Z,22.20
2023-05-23T22:58:47.451Z,19.85
2023-05-23T23:01:15.165Z,20.55
2023-05-23T23:03:42.666Z,16.42
2023-05-23T23:06:10.372Z,22.55
2023-05-23T23:08:37.906Z,29.02
2023-05-23T23:11:05.578Z,33.53
2023-05-23T23:13:33.168Z,35.95
2023-05-23T23:16:00.892Z,45.70
2023-05-23T23:18:28.544Z,33.22
2023-05-23T23:20:56.055Z,49.08
2023-05-23T23:23:23.681Z,24.85
2023-05-23T23:25:51.615Z,35.13
2023-05-23T23:28:19.703Z,18.23
2023-05-23T23:30:47.778Z,15.70
2023-05-23T23:33:15.559Z,16.13
2023-05-23T23:35:47.769Z,18.65
2023-05-23T23:38:15.817Z,19.88
2023-05-23T23:40:44.770Z,56.15
2023-05-23T23:43:13.203Z,74.85
2023-05-23T23:45:40.825Z,70.07
2023-05-23T23:48:08.597Z,67.38
2023-05-23T23:50:36.212Z,30.98
2023-05-23T23:53:03.904Z,41.28
2023-05-23T23:55:31.584Z,24.35
2023-05-23T23:57:58.998Z,30.83
